sensor_id;sensor_type;location;lat;lon;timestamp;P1;durP1;ratioP1;P2;durP2;ratioP2
36787;SDS011;22738;45.560;9.434;2023-04-15T00:06:38;7.13;;;2.30;;
36787;SDS011;22738;45.560;9.434;2023-04-15T00:13:20;5.85;;;2.53;;
36787;SDS011;22738;45.560;9.434;2023-04-15T00:20:02;5.28;;;2.50;;
36787;SDS011;22738;45.560;9.434;2023-04-15T00:26:45;4.13;;;2.10;;
36787;SDS011;22738;45.560;9.434;2023-04-15T00:33:27;3.88;;;1.83;;
36787;SDS011;22738;45.560;9.434;2023-04-15T00:40:10;3.78;;;2.25;;
36787;SDS011;22738;45.560;9.434;2023-04-15T00:46:53;4.88;;;2.13;;
36787;SDS011;22738;45.560;9.434;2023-04-15T00:53:34;6.50;;;2.03;;
36787;SDS011;22738;45.560;9.434;2023-04-15T01:00:15;3.72;;;1.83;;
36787;SDS011;22738;45.560;9.434;2023-04-15T01:06:56;7.10;;;3.08;;
36787;SDS011;22738;45.560;9.434;2023-04-15T01:13:39;6.68;;;3.13;;
36787;SDS011;22738;45.560;9.434;2023-04-15T01:20:20;6.78;;;3.10;;
36787;SDS011;22738;45.560;9.434;2023-04-15T01:27:01;4.68;;;2.78;;
36787;SDS011;22738;45.560;9.434;2023-04-15T01:33:45;8.80;;;4.22;;
36787;SDS011;22738;45.560;9.434;2023-04-15T01:47:09;6.63;;;2.88;;
36787;SDS011;22738;45.560;9.434;2023-04-15T01:53:50;3.70;;;2.53;;
36787;SDS011;22738;45.560;9.434;2023-04-15T02:00:31;6.47;;;3.17;;
36787;SDS011;22738;45.560;9.434;2023-04-15T02:07:14;7.40;;;3.03;;
36787;SDS011;22738;45.560;9.434;2023-04-15T02:13:56;7.13;;;3.63;;
36787;SDS011;22738;45.560;9.434;2023-04-15T02:20:39;8.98;;;3.75;;
36787;SDS011;22738;45.560;9.434;2023-04-15T02:27:20;6.53;;;3.50;;
36787;SDS011;22738;45.560;9.434;2023-04-15T02:40:45;7.53;;;3.60;;
36787;SDS011;22738;45.560;9.434;2023-04-15T02:47:26;9.38;;;2.83;;
36787;SDS011;22738;45.560;9.434;2023-04-15T02:54:08;7.15;;;3.30;;
36787;SDS011;22738;45.560;9.434;2023-04-15T03:00:49;6.00;;;3.28;;
36787;SDS011;22738;45.560;9.434;2023-04-15T03:07:31;6.65;;;3.15;;
36787;SDS011;22738;45.560;9.434;2023-04-15T03:14:13;4.32;;;2.80;;
36787;SDS011;22738;45.560;9.434;2023-04-15T03:20:58;8.23;;;3.35;;
36787;SDS011;22738;45.560;9.434;2023-04-15T03:27:41;8.77;;;3.50;;
36787;SDS011;22738;45.560;9.434;2023-04-15T03:34:22;5.47;;;2.95;;
36787;SDS011;22738;45.560;9.434;2023-04-15T03:41:03;8.48;;;3.63;;
36787;SDS011;22738;45.560;9.434;2023-04-15T03:47:45;6.80;;;2.92;;
36787;SDS011;22738;45.560;9.434;2023-04-15T03:54:26;4.28;;;2.80;;
36787;SDS011;22738;45.560;9.434;2023-04-15T04:01:07;5.07;;;2.75;;
36787;SDS011;22738;45.560;9.434;2023-04-15T04:07:48;7.10;;;2.42;;
36787;SDS011;22738;45.560;9.434;2023-04-15T04:14:29;4.85;;;2.08;;
36787;SDS011;22738;45.560;9.434;2023-04-15T04:21:10;4.75;;;2.15;;
36787;SDS011;22738;45.560;9.434;2023-04-15T04:27:51;4.13;;;2.10;;
36787;SDS011;22738;45.560;9.434;2023-04-15T04:34:32;3.35;;;1.67;;
36787;SDS011;22738;45.560;9.434;2023-04-15T04:41:13;5.93;;;2.22;;
36787;SDS011;22738;45.560;9.434;2023-04-15T04:47:54;5.85;;;2.05;;
36787;SDS011;22738;45.560;9.434;2023-04-15T04:54:35;3.90;;;1.98;;
36787;SDS011;22738;45.560;9.434;2023-04-15T05:01:16;3.03;;;1.17;;
36787;SDS011;22738;45.560;9.434;2023-04-15T05:07:57;3.78;;;1.73;;
36787;SDS011;22738;45.560;9.434;2023-04-15T05:14:38;3.17;;;1.58;;
36787;SDS011;22738;45.560;9.434;2023-04-15T05:21:19;2.30;;;1.20;;
36787;SDS011;22738;45.560;9.434;2023-04-15T05:28:01;4.65;;;1.73;;
36787;SDS011;22738;45.560;9.434;2023-04-15T05:34:42;2.63;;;1.48;;
36787;SDS011;22738;45.560;9.434;2023-04-15T05:41:23;5.63;;;1.85;;
36787;SDS011;22738;45.560;9.434;2023-04-15T05:48:04;3.15;;;1.35;;
36787;SDS011;22738;45.560;9.434;2023-04-15T05:54:45;1.73;;;1.17;;
36787;SDS011;22738;45.560;9.434;2023-04-15T06:01:26;5.78;;;1.88;;
36787;SDS011;22738;45.560;9.434;2023-04-15T06:08:07;4.30;;;1.80;;
36787;SDS011;22738;45.560;9.434;2023-04-15T06:14:48;4.22;;;1.73;;
36787;SDS011;22738;45.560;9.434;2023-04-15T06:21:29;3.55;;;1.75;;
36787;SDS011;22738;45.560;9.434;2023-04-15T06:28:11;4.57;;;1.73;;
36787;SDS011;22738;45.560;9.434;2023-04-15T06:34:52;5.78;;;2.80;;
36787;SDS011;22738;45.560;9.434;2023-04-15T06:41:33;6.18;;;2.70;;
36787;SDS011;22738;45.560;9.434;2023-04-15T06:48:15;5.55;;;2.78;;
36787;SDS011;22738;45.560;9.434;2023-04-15T06:54:57;5.93;;;2.78;;
36787;SDS011;22738;45.560;9.434;2023-04-15T07:01:39;5.05;;;2.28;;
36787;SDS011;22738;45.560;9.434;2023-04-15T07:08:21;6.57;;;2.72;;
36787;SDS011;22738;45.560;9.434;2023-04-15T07:15:03;7.60;;;2.92;;
36787;SDS011;22738;45.560;9.434;2023-04-15T07:21:44;6.85;;;3.13;;
36787;SDS011;22738;45.560;9.434;2023-04-15T07:28:26;6.90;;;3.45;;
36787;SDS011;22738;45.560;9.434;2023-04-15T07:35:08;6.95;;;3.95;;
36787;SDS011;22738;45.560;9.434;2023-04-15T07:48:32;5.65;;;3.80;;
36787;SDS011;22738;45.560;9.434;2023-04-15T07:55:13;5.15;;;3.08;;
36787;SDS011;22738;45.560;9.434;2023-04-15T08:01:54;7.38;;;3.60;;
36787;SDS011;22738;45.560;9.434;2023-04-15T08:08:36;6.88;;;4.03;;
36787;SDS011;22738;45.560;9.434;2023-04-15T08:15:17;5.95;;;3.92;;
36787;SDS011;22738;45.560;9.434;2023-04-15T08:21:58;8.07;;;4.10;;
36787;SDS011;22738;45.560;9.434;2023-04-15T08:28:40;6.10;;;3.78;;
36787;SDS011;22738;45.560;9.434;2023-04-15T08:35:22;6.20;;;3.58;;
36787;SDS011;22738;45.560;9.434;2023-04-15T08:42:03;8.68;;;4.35;;
36787;SDS011;22738;45.560;9.434;2023-04-15T08:48:53;6.05;;;4.30;;
36787;SDS011;22738;45.560;9.434;2023-04-15T08:55:39;10.05;;;4.15;;
36787;SDS011;22738;45.560;9.434;2023-04-15T09:02:24;5.95;;;3.88;;
36787;SDS011;22738;45.560;9.434;2023-04-15T09:09:06;9.27;;;4.68;;
36787;SDS011;22738;45.560;9.434;2023-04-15T09:15:47;6.22;;;3.88;;
36787;SDS011;22738;45.560;9.434;2023-04-15T09:22:32;10.07;;;4.20;;
36787;SDS011;22738;45.560;9.434;2023-04-15T09:29:13;7.40;;;4.25;;
36787;SDS011;22738;45.560;9.434;2023-04-15T09:42:54;8.25;;;4.20;;
36787;SDS011;22738;45.560;9.434;2023-04-15T09:49:36;10.75;;;4.70;;
36787;SDS011;22738;45.560;9.434;2023-04-15T09:56:17;11.55;;;4.53;;
36787;SDS011;22738;45.560;9.434;2023-04-15T10:03:04;7.00;;;4.22;;
36787;SDS011;22738;45.560;9.434;2023-04-15T10:09:49;7.85;;;4.68;;
36787;SDS011;22738;45.560;9.434;2023-04-15T10:16:31;7.65;;;4.25;;
36787;SDS011;22738;45.560;9.434;2023-04-15T10:23:13;8.70;;;4.22;;
36787;SDS011;22738;45.560;9.434;2023-04-15T10:29:55;5.38;;;3.30;;
36787;SDS011;22738;45.560;9.434;2023-04-15T10:36:37;6.63;;;3.30;;
36787;SDS011;22738;45.560;9.434;2023-04-15T10:43:24;7.75;;;3.47;;
36787;SDS011;22738;45.560;9.434;2023-04-15T10:50:08;7.38;;;2.83;;
36787;SDS011;22738;45.560;9.434;2023-04-15T10:56:50;7.28;;;2.85;;
36787;SDS011;22738;45.560;9.434;2023-04-15T11:03:41;5.40;;;2.80;;
36787;SDS011;22738;45.560;9.434;2023-04-15T11:17:10;7.68;;;3.35;;
36787;SDS011;22738;45.560;9.434;2023-04-15T11:23:51;9.10;;;3.28;;
36787;SDS011;22738;45.560;9.434;2023-04-15T11:30:33;6.05;;;3.65;;
36787;SDS011;22738;45.560;9.434;2023-04-15T11:37:16;7.63;;;4.13;;
36787;SDS011;22738;45.560;9.434;2023-04-15T11:43:57;9.50;;;3.83;;
36787;SDS011;22738;45.560;9.434;2023-04-15T11:50:40;8.98;;;4.05;;
36787;SDS011;22738;45.560;9.434;2023-04-15T11:57:21;8.13;;;3.80;;
36787;SDS011;22738;45.560;9.434;2023-04-15T12:04:09;10.07;;;3.53;;
36787;SDS011;22738;45.560;9.434;2023-04-15T12:10:57;12.98;;;3.75;;
36787;SDS011;22738;45.560;9.434;2023-04-15T12:17:39;45.63;;;7.78;;
36787;SDS011;22738;45.560;9.434;2023-04-15T12:24:21;7.57;;;4.10;;
36787;SDS011;22738;45.560;9.434;2023-04-15T12:31:09;5.90;;;3.38;;
36787;SDS011;22738;45.560;9.434;2023-04-15T12:37:51;7.72;;;4.25;;
36787;SDS011;22738;45.560;9.434;2023-04-15T12:44:32;12.88;;;4.15;;
36787;SDS011;22738;45.560;9.434;2023-04-15T12:51:13;4.50;;;2.50;;
36787;SDS011;22738;45.560;9.434;2023-04-15T12:57:56;7.30;;;3.47;;
36787;SDS011;22738;45.560;9.434;2023-04-15T13:04:37;4.90;;;2.55;;
36787;SDS011;22738;45.560;9.434;2023-04-15T13:11:22;8.65;;;3.33;;
36787;SDS011;22738;45.560;9.434;2023-04-15T13:18:04;7.28;;;2.83;;
36787;SDS011;22738;45.560;9.434;2023-04-15T13:24:46;6.90;;;2.97;;
36787;SDS011;22738;45.560;9.434;2023-04-15T13:31:27;8.20;;;2.78;;
36787;SDS011;22738;45.560;9.434;2023-04-15T13:38:10;7.45;;;3.50;;
36787;SDS011;22738;45.560;9.434;2023-04-15T13:44:51;6.97;;;3.75;;
36787;SDS011;22738;45.560;9.434;2023-04-15T13:51:32;9.80;;;3.70;;
36787;SDS011;22738;45.560;9.434;2023-04-15T13:58:15;7.47;;;3.78;;
36787;SDS011;22738;45.560;9.434;2023-04-15T14:04:56;7.22;;;2.85;;
36787;SDS011;22738;45.560;9.434;2023-04-15T14:11:38;6.90;;;2.95;;
36787;SDS011;22738;45.560;9.434;2023-04-15T14:18:19;7.03;;;2.72;;
36787;SDS011;22738;45.560;9.434;2023-04-15T14:25:00;5.63;;;2.70;;
36787;SDS011;22738;45.560;9.434;2023-04-15T14:31:41;4.70;;;2.40;;
36787;SDS011;22738;45.560;9.434;2023-04-15T14:38:24;6.80;;;2.93;;
36787;SDS011;22738;45.560;9.434;2023-04-15T14:45:05;6.32;;;2.78;;
36787;SDS011;22738;45.560;9.434;2023-04-15T14:51:47;5.38;;;2.80;;
36787;SDS011;22738;45.560;9.434;2023-04-15T14:58:28;8.07;;;2.95;;
36787;SDS011;22738;45.560;9.434;2023-04-15T15:05:09;5.88;;;2.72;;
36787;SDS011;22738;45.560;9.434;2023-04-15T15:11:51;8.63;;;2.47;;
36787;SDS011;22738;45.560;9.434;2023-04-15T15:18:34;7.32;;;2.90;;
36787;SDS011;22738;45.560;9.434;2023-04-15T15:25:15;7.05;;;3.42;;
36787;SDS011;22738;45.560;9.434;2023-04-15T15:31:56;10.80;;;5.07;;
36787;SDS011;22738;45.560;9.434;2023-04-15T15:38:39;8.85;;;4.93;;
36787;SDS011;22738;45.560;9.434;2023-04-15T15:45:20;8.50;;;4.78;;
36787;SDS011;22738;45.560;9.434;2023-04-15T15:52:01;8.73;;;5.05;;
36787;SDS011;22738;45.560;9.434;2023-04-15T15:58:42;12.30;;;6.88;;
36787;SDS011;22738;45.560;9.434;2023-04-15T16:05:24;14.48;;;5.85;;
36787;SDS011;22738;45.560;9.434;2023-04-15T16:12:05;9.32;;;5.55;;
36787;SDS011;22738;45.560;9.434;2023-04-15T16:18:46;10.70;;;6.60;;
36787;SDS011;22738;45.560;9.434;2023-04-15T16:25:27;9.10;;;5.32;;
36787;SDS011;22738;45.560;9.434;2023-04-15T16:32:09;11.07;;;6.03;;
36787;SDS011;22738;45.560;9.434;2023-04-15T16:38:50;9.85;;;4.32;;
36787;SDS011;22738;45.560;9.434;2023-04-15T16:45:32;6.25;;;1.63;;
36787;SDS011;22738;45.560;9.434;2023-04-15T16:52:13;2.85;;;1.33;;
36787;SDS011;22738;45.560;9.434;2023-04-15T16:58:54;4.30;;;1.27;;
36787;SDS011;22738;45.560;9.434;2023-04-15T17:05:36;1.20;;;0.88;;
36787;SDS011;22738;45.560;9.434;2023-04-15T17:12:17;5.40;;;1.33;;
36787;SDS011;22738;45.560;9.434;2023-04-15T17:18:58;5.38;;;2.47;;
36787;SDS011;22738;45.560;9.434;2023-04-15T17:25:39;2.67;;;2.08;;
36787;SDS011;22738;45.560;9.434;2023-04-15T17:32:20;2.67;;;1.75;;
36787;SDS011;22738;45.560;9.434;2023-04-15T17:39:02;3.05;;;2.10;;
36787;SDS011;22738;45.560;9.434;2023-04-15T17:45:44;4.45;;;2.58;;
36787;SDS011;22738;45.560;9.434;2023-04-15T17:52:26;4.40;;;1.92;;
36787;SDS011;22738;45.560;9.434;2023-04-15T17:59:07;2.97;;;1.95;;
36787;SDS011;22738;45.560;9.434;2023-04-15T18:05:48;4.47;;;2.35;;
36787;SDS011;22738;45.560;9.434;2023-04-15T18:12:30;6.28;;;2.17;;
36787;SDS011;22738;45.560;9.434;2023-04-15T18:19:11;5.18;;;2.65;;
36787;SDS011;22738;45.560;9.434;2023-04-15T18:25:52;6.35;;;3.70;;
36787;SDS011;22738;45.560;9.434;2023-04-15T18:32:33;6.93;;;4.40;;
36787;SDS011;22738;45.560;9.434;2023-04-15T18:39:14;8.00;;;4.88;;
36787;SDS011;22738;45.560;9.434;2023-04-15T18:45:56;12.02;;;4.90;;
36787;SDS011;22738;45.560;9.434;2023-04-15T18:52:38;6.20;;;4.13;;
36787;SDS011;22738;45.560;9.434;2023-04-15T18:59:20;7.10;;;4.88;;
36787;SDS011;22738;45.560;9.434;2023-04-15T19:06:01;6.72;;;4.80;;
36787;SDS011;22738;45.560;9.434;2023-04-15T19:12:42;6.45;;;4.35;;
36787;SDS011;22738;45.560;9.434;2023-04-15T19:19:23;7.95;;;4.30;;
36787;SDS011;22738;45.560;9.434;2023-04-15T19:26:05;10.02;;;4.43;;
36787;SDS011;22738;45.560;9.434;2023-04-15T19:32:47;5.63;;;4.32;;
36787;SDS011;22738;45.560;9.434;2023-04-15T19:39:28;7.95;;;3.80;;
36787;SDS011;22738;45.560;9.434;2023-04-15T19:46:10;13.60;;;5.05;;
36787;SDS011;22738;45.560;9.434;2023-04-15T19:52:52;8.05;;;4.68;;
36787;SDS011;22738;45.560;9.434;2023-04-15T19:59:34;7.43;;;5.15;;
36787;SDS011;22738;45.560;9.434;2023-04-15T20:06:15;8.55;;;4.25;;
36787;SDS011;22738;45.560;9.434;2023-04-15T20:12:56;7.63;;;4.68;;
36787;SDS011;22738;45.560;9.434;2023-04-15T20:19:38;12.00;;;5.68;;
36787;SDS011;22738;45.560;9.434;2023-04-15T20:26:22;8.60;;;4.88;;
36787;SDS011;22738;45.560;9.434;2023-04-15T20:33:04;9.85;;;5.22;;
36787;SDS011;22738;45.560;9.434;2023-04-15T20:39:47;7.47;;;4.45;;
36787;SDS011;22738;45.560;9.434;2023-04-15T20:46:28;9.13;;;6.05;;
36787;SDS011;22738;45.560;9.434;2023-04-15T20:53:09;8.35;;;5.55;;
36787;SDS011;22738;45.560;9.434;2023-04-15T20:59:50;11.07;;;6.15;;
36787;SDS011;22738;45.560;9.434;2023-04-15T21:06:32;8.30;;;5.35;;
36787;SDS011;22738;45.560;9.434;2023-04-15T21:13:14;10.27;;;6.00;;
36787;SDS011;22738;45.560;9.434;2023-04-15T21:19:58;10.77;;;6.53;;
36787;SDS011;22738;45.560;9.434;2023-04-15T21:26:39;11.63;;;5.95;;
36787;SDS011;22738;45.560;9.434;2023-04-15T21:33:23;10.63;;;5.55;;
36787;SDS011;22738;45.560;9.434;2023-04-15T21:40:05;10.63;;;6.30;;
36787;SDS011;22738;45.560;9.434;2023-04-15T21:46:47;7.88;;;5.68;;
36787;SDS011;22738;45.560;9.434;2023-04-15T21:53:28;10.38;;;5.88;;
36787;SDS011;22738;45.560;9.434;2023-04-15T22:00:09;11.55;;;6.68;;
36787;SDS011;22738;45.560;9.434;2023-04-15T22:06:51;11.43;;;7.40;;
36787;SDS011;22738;45.560;9.434;2023-04-15T22:13:35;10.40;;;6.53;;
36787;SDS011;22738;45.560;9.434;2023-04-15T22:20:16;13.60;;;7.15;;
36787;SDS011;22738;45.560;9.434;2023-04-15T22:26:58;10.93;;;6.95;;
36787;SDS011;22738;45.560;9.434;2023-04-15T22:33:39;10.88;;;6.47;;
36787;SDS011;22738;45.560;9.434;2023-04-15T22:40:20;9.13;;;6.22;;
36787;SDS011;22738;45.560;9.434;2023-04-15T22:47:01;10.32;;;6.60;;
36787;SDS011;22738;45.560;9.434;2023-04-15T22:53:42;11.88;;;7.35;;
36787;SDS011;22738;45.560;9.434;2023-04-15T23:00:23;15.10;;;7.80;;
36787;SDS011;22738;45.560;9.434;2023-04-15T23:07:04;9.65;;;6.72;;
36787;SDS011;22738;45.560;9.434;2023-04-15T23:13:46;14.30;;;7.70;;
36787;SDS011;22738;45.560;9.434;2023-04-15T23:20:28;12.13;;;7.63;;
36787;SDS011;22738;45.560;9.434;2023-04-15T23:27:09;14.75;;;8.00;;
36787;SDS011;22738;45.560;9.434;2023-04-15T23:33:50;11.48;;;7.35;;
36787;SDS011;22738;45.560;9.434;2023-04-15T23:40:31;9.15;;;6.60;;
36787;SDS011;22738;45.560;9.434;2023-04-15T23:47:12;12.30;;;6.78;;
36787;SDS011;22738;45.560;9.434;2023-04-15T23:53:54;8.88;;;6.68;;
